Time;durP1;ratioP1;P1;durP2;ratioP2;P2;SDS_P1;SDS_P2;PMS_P1;PMS_P2;Temp;Humidity;BMP_temperature;BMP_pressure;BME280_temperature;BME280_humidity;BME280_pressure;Samples;Min_cycle;Max_cycle;Signal;HPM_P1;HPM_P2
2020/12/08 00:04:23;;;;;;;18.02;9.05;;;3.10;99.90;;;;;;6753495;88;20208;-76
2020/12/08 00:14:23;;;;;;;19.67;8.40;;;3.20;99.90;;;;;;6747612;87;20189;-77
2020/12/08 00:24:25;;;;;;;18.12;8.90;;;3.30;99.90;;;;;;6739419;88;20214;-77
2020/12/08 00:34:25;;;;;;;20.25;9.55;;;3.30;99.90;;;;;;6751780;88;22423;-77
2020/12/08 00:44:26;;;;;;;19.62;9.75;;;3.30;99.90;;;;;;6747834;88;20210;-77
2020/12/08 00:54:27;;;;;;;18.85;9.75;;;3.20;99.90;;;;;;6752196;88;20224;-77
2020/12/08 01:04:28;;;;;;;21.02;10.23;;;3.30;99.90;;;;;;6748051;88;20517;-77
2020/12/08 01:14:31;;;;;;;18.80;10.57;;;3.30;99.90;;;;;;6748814;87;20200;-77
2020/12/08 01:24:31;;;;;;;19.83;10.18;;;3.20;99.90;;;;;;6747609;88;20206;-77
2020/12/08 01:34:32;;;;;;;19.17;9.38;;;3.30;99.90;;;;;;6750550;88;20189;-76
2020/12/08 01:44:32;;;;;;;18.20;9.50;;;3.30;99.90;;;;;;6750385;88;20275;-76
2020/12/08 01:54:33;;;;;;;19.33;10.00;;;3.20;99.90;;;;;;6750257;88;20206;-76
2020/12/08 02:04:35;;;;;;;17.00;9.63;;;3.20;99.90;;;;;;6749560;88;20215;-75
2020/12/08 02:14:36;;;;;;;19.08;9.70;;;3.50;99.90;;;;;;6747191;88;20239;-76
2020/12/08 02:24:36;;;;;;;18.55;10.10;;;3.20;99.90;;;;;;6749588;88;20237;-76
2020/12/08 02:34:37;;;;;;;18.77;9.98;;;3.20;99.90;;;;;;6750831;88;20259;-77
2020/12/08 02:44:37;;;;;;;19.45;10.20;;;3.20;99.90;;;;;;6753579;88;20219;-77
2020/12/08 02:54:38;;;;;;;21.50;10.05;;;3.20;99.90;;;;;;6750392;88;20190;-76
2020/12/08 03:04:38;;;;;;;21.08;11.40;;;3.10;99.90;;;;;;6752950;88;20180;-76
2020/12/08 03:14:59;;;;;;;20.08;11.10;;;3.20;99.90;;;;;;6755353;77;20209;-76
2020/12/08 03:25:00;;;;;;;19.90;10.45;;;2.70;99.90;;;;;;6720572;88;20296;-76
2020/12/08 03:35:01;;;;;;;20.50;10.90;;;2.40;99.90;;;;;;6734433;88;21092;-76
2020/12/08 03:45:01;;;;;;;20.37;11.23;;;2.40;99.90;;;;;;6730759;88;20177;-76
2020/12/08 03:55:02;;;;;;;20.80;10.55;;;2.50;99.90;;;;;;6734972;88;20197;-76
2020/12/08 04:05:03;;;;;;;22.17;11.02;;;2.70;99.90;;;;;;6733480;88;20200;-76
2020/12/08 04:15:04;;;;;;;22.67;11.60;;;2.80;99.90;;;;;;6735635;88;20222;-76
2020/12/08 04:25:04;;;;;;;21.92;11.48;;;3.20;99.90;;;;;;6729437;88;20649;-76
2020/12/08 04:35:05;;;;;;;16.98;9.23;;;3.50;99.90;;;;;;6739214;88;20205;-76
2020/12/08 04:45:06;;;;;;;12.60;7.43;;;3.70;99.90;;;;;;6709929;88;20228;-76
2020/12/08 04:55:06;;;;;;;16.92;9.20;;;3.90;99.90;;;;;;6737090;88;20535;-76
2020/12/08 05:05:07;;;;;;;13.00;7.65;;;3.90;99.90;;;;;;6735926;88;20210;-78
2020/12/08 05:15:15;;;;;;;8.85;4.68;;;4.10;99.90;;;;;;6722332;88;20193;-75
2020/12/08 05:25:16;;;;;;;10.82;5.75;;;4.10;99.90;;;;;;6732716;88;20228;-78
2020/12/08 05:35:24;;;;;;;9.43;5.87;;;4.10;99.90;;;;;;6734998;88;20753;-76
2020/12/08 05:45:25;;;;;;;10.00;5.53;;;4.10;99.90;;;;;;6743742;88;20526;-76
2020/12/08 05:55:31;;;;;;;10.93;5.68;;;4.10;99.90;;;;;;6750064;88;20725;-76
2020/12/08 06:05:32;;;;;;;11.38;5.53;;;4.00;99.90;;;;;;6736413;88;20190;-76
2020/12/08 06:15:39;;;;;;;8.65;4.55;;;4.10;99.90;;;;;;6735584;88;20202;-75
2020/12/08 06:25:40;;;;;;;8.18;4.55;;;3.90;99.90;;;;;;6738285;88;20228;-75
2020/12/08 06:35:40;;;;;;;10.13;5.40;;;3.90;99.90;;;;;;6735529;88;20723;-76
2020/12/08 06:45:41;;;;;;;8.82;4.85;;;3.90;99.90;;;;;;6734666;88;20217;-75
2020/12/08 06:55:45;;;;;;;8.18;4.47;;;3.90;99.90;;;;;;6735542;88;20611;-75
2020/12/08 07:05:45;;;;;;;7.97;4.22;;;3.90;99.90;;;;;;6734654;88;20293;-75
2020/12/08 07:15:46;;;;;;;7.60;4.20;;;3.90;99.90;;;;;;6744445;88;20189;-78
2020/12/08 07:25:46;;;;;;;7.32;4.35;;;3.80;99.90;;;;;;6743447;88;20202;-75
2020/12/08 07:35:47;;;;;;;9.82;5.00;;;4.00;99.90;;;;;;6745694;88;20203;-77
2020/12/08 07:45:48;;;;;;;7.68;4.68;;;4.00;99.90;;;;;;6747393;88;20694;-77
2020/12/08 07:55:49;;;;;;;8.27;4.85;;;4.00;99.90;;;;;;6751527;88;20165;-79
2020/12/08 08:05:49;;;;;;;10.90;5.37;;;4.00;99.90;;;;;;6751645;88;20149;-79
2020/12/08 08:15:50;;;;;;;9.93;5.85;;;4.10;99.90;;;;;;6751483;88;21220;-78
2020/12/08 08:25:51;;;;;;;13.10;6.60;;;4.10;99.90;;;;;;6751065;88;20177;-78
2020/12/08 08:35:52;;;;;;;10.85;6.47;;;4.30;99.90;;;;;;6748146;88;20264;-78
2020/12/08 08:45:54;;;;;;;12.05;6.60;;;4.30;99.90;;;;;;6750817;88;20162;-78
2020/12/08 08:55:54;;;;;;;16.17;8.00;;;4.30;99.90;;;;;;6751127;88;20188;-78
2020/12/08 09:05:55;;;;;;;15.45;7.55;;;4.40;99.90;;;;;;6751262;88;20181;-78
2020/12/08 09:15:55;;;;;;;16.42;8.23;;;4.40;99.90;;;;;;6741113;77;20611;-76
2020/12/08 09:25:58;;;;;;;15.95;7.80;;;4.60;99.90;;;;;;6734477;88;20502;-76
2020/12/08 09:35:58;;;;;;;13.55;7.22;;;4.70;99.90;;;;;;6725034;88;20311;-77
2020/12/08 09:45:59;;;;;;;13.55;7.30;;;4.90;99.90;;;;;;6738259;88;20203;-77
2020/12/08 09:55:59;;;;;;;14.15;7.80;;;4.80;99.90;;;;;;6733970;88;20197;-76
2020/12/08 10:06:02;;;;;;;14.90;7.97;;;5.10;99.90;;;;;;6719309;88;20344;-76
2020/12/08 10:16:03;;;;;;;15.40;8.38;;;5.30;99.90;;;;;;6721899;88;20661;-76
2020/12/08 10:26:03;;;;;;;13.80;7.32;;;5.50;99.90;;;;;;6735493;88;20185;-75
2020/12/08 10:36:04;;;;;;;13.32;7.00;;;5.70;99.90;;;;;;6719659;88;20214;-76
2020/12/08 10:46:04;;;;;;;15.48;7.30;;;5.80;99.90;;;;;;6721203;88;20218;-75
2020/12/08 10:56:05;;;;;;;11.93;6.25;;;5.70;99.90;;;;;;6720264;88;20222;-75
2020/12/08 11:06:05;;;;;;;13.98;7.22;;;5.90;99.90;;;;;;6719001;88;20620;-76
2020/12/08 11:16:06;;;;;;;11.75;6.20;;;6.00;99.90;;;;;;6733365;88;20251;-76
2020/12/08 11:26:13;;;;;;;12.55;6.78;;;6.10;99.90;;;;;;6722593;88;20222;-78
2020/12/08 11:36:14;;;;;;;11.82;6.28;;;6.20;99.90;;;;;;6735752;88;20185;-78
2020/12/08 11:46:15;;;;;;;9.55;5.53;;;6.00;99.90;;;;;;6738529;88;20192;-75
2020/12/08 11:56:15;;;;;;;9.27;5.30;;;6.00;99.90;;;;;;6737570;88;20245;-75
2020/12/08 12:06:16;;;;;;;8.18;4.70;;;5.90;99.90;;;;;;6739151;88;20282;-77
2020/12/08 12:16:17;;;;;;;8.57;5.07;;;5.80;99.90;;;;;;6747098;88;20251;-76
2020/12/08 12:26:18;;;;;;;9.73;5.28;;;5.90;99.90;;;;;;6741358;88;20181;-75
2020/12/08 12:36:18;;;;;;;8.00;4.68;;;6.00;99.90;;;;;;6748433;88;20258;-75
2020/12/08 12:46:19;;;;;;;8.10;4.90;;;6.10;99.90;;;;;;6745281;88;20180;-76
2020/12/08 12:56:23;;;;;;;8.73;5.60;;;6.10;99.90;;;;;;6747566;88;20191;-77
2020/12/08 13:06:24;;;;;;;8.82;4.82;;;6.00;99.90;;;;;;6751712;88;20208;-76
2020/12/08 13:16:24;;;;;;;9.88;5.40;;;5.90;99.90;;;;;;6735233;88;20205;-76
2020/12/08 13:26:25;;;;;;;8.77;5.28;;;6.00;99.90;;;;;;6727861;88;20232;-75
2020/12/08 13:36:25;;;;;;;8.88;5.10;;;6.10;99.90;;;;;;6740395;88;20225;-76
2020/12/08 13:46:26;;;;;;;8.68;5.45;;;6.30;99.90;;;;;;6754821;88;20223;-76
2020/12/08 13:56:28;;;;;;;7.97;5.25;;;6.50;99.90;;;;;;6748463;88;20652;-76
2020/12/08 14:06:29;;;;;;;9.25;5.32;;;6.50;99.90;;;;;;6755462;88;20196;-76
2020/12/08 14:16:29;;;;;;;9.57;5.45;;;6.50;99.90;;;;;;6723724;88;20634;-76
2020/12/08 14:26:30;;;;;;;9.27;5.85;;;6.40;99.90;;;;;;6716596;88;20645;-76
2020/12/08 14:36:31;;;;;;;9.95;5.53;;;6.30;99.90;;;;;;6722471;88;20232;-76
2020/12/08 14:46:33;;;;;;;9.98;5.65;;;6.10;99.90;;;;;;6739284;88;20196;-76
2020/12/08 14:56:33;;;;;;;11.43;6.45;;;6.00;99.90;;;;;;6747051;88;20223;-75
2020/12/08 15:06:34;;;;;;;10.82;6.75;;;6.10;99.90;;;;;;6758221;88;20212;-75
2020/12/08 15:16:34;;;;;;;9.63;6.00;;;6.00;99.90;;;;;;6724298;76;20251;-74
2020/12/08 15:26:36;;;;;;;10.40;5.70;;;5.80;99.90;;;;;;6693211;88;20192;-72
2020/12/08 15:36:37;;;;;;;16.00;6.65;;;5.60;99.90;;;;;;6683033;88;20566;-74
2020/12/08 15:46:38;;;;;;;11.93;6.37;;;5.30;99.90;;;;;;6678468;88;20250;-75
2020/12/08 15:56:40;;;;;;;11.88;6.68;;;5.10;99.90;;;;;;6686340;88;20171;-72
2020/12/08 16:06:40;;;;;;;10.20;6.28;;;5.10;99.90;;;;;;6682792;88;20193;-72
2020/12/08 16:16:41;;;;;;;11.95;6.60;;;5.10;99.90;;;;;;6685885;88;20311;-72
2020/12/08 16:26:43;;;;;;;14.00;7.03;;;5.00;99.90;;;;;;6699272;88;20208;-72
2020/12/08 16:36:44;;;;;;;12.15;6.95;;;5.10;99.90;;;;;;6693982;88;20191;-72
2020/12/08 16:46:44;;;;;;;15.68;7.75;;;5.20;99.90;;;;;;6695963;88;20190;-71
2020/12/08 16:56:45;;;;;;;12.40;7.77;;;5.20;99.90;;;;;;6693926;88;20195;-71
2020/12/08 17:06:45;;;;;;;12.73;7.57;;;4.80;99.90;;;;;;6694898;88;20934;-72
2020/12/08 17:16:47;;;;;;;16.83;8.23;;;4.80;99.90;;;;;;6692280;88;20206;-72
2020/12/08 17:26:47;;;;;;;15.80;8.73;;;4.70;99.90;;;;;;6695614;88;20213;-71
2020/12/08 17:36:48;;;;;;;18.67;8.25;;;4.60;99.90;;;;;;6697891;88;20671;-72
2020/12/08 17:46:50;;;;;;;14.95;8.48;;;4.60;99.90;;;;;;6687597;88;20201;-72
2020/12/08 17:56:50;;;;;;;18.65;9.20;;;4.40;99.90;;;;;;6689742;88;20332;-72
2020/12/08 18:06:54;;;;;;;16.12;8.77;;;4.30;99.90;;;;;;6689812;88;20199;-70
2020/12/08 18:16:55;;;;;;;17.37;10.18;;;4.20;99.90;;;;;;6685094;88;20194;-71
2020/12/08 18:26:55;;;;;;;21.83;10.70;;;4.20;99.90;;;;;;6690528;88;20353;-71
2020/12/08 18:36:56;;;;;;;20.08;10.77;;;4.10;99.90;;;;;;6692759;88;20340;-71
2020/12/08 18:46:58;;;;;;;19.98;10.32;;;4.10;99.90;;;;;;6692777;88;20330;-73
2020/12/08 18:56:59;;;;;;;18.87;10.27;;;4.10;99.90;;;;;;6692020;88;20485;-74
2020/12/08 19:07:00;;;;;;;19.45;10.50;;;4.20;99.90;;;;;;6690360;88;20203;-74
2020/12/08 19:17:00;;;;;;;17.65;10.27;;;4.20;99.90;;;;;;6698019;88;20977;-73
2020/12/08 19:27:01;;;;;;;20.57;10.77;;;4.30;99.90;;;;;;6694175;88;20218;-75
2020/12/08 19:37:01;;;;;;;19.95;10.60;;;4.30;99.90;;;;;;6693156;88;20504;-75
2020/12/08 19:47:04;;;;;;;21.75;10.65;;;4.30;99.90;;;;;;6695771;88;21057;-75
2020/12/08 19:57:04;;;;;;;20.45;10.60;;;4.30;99.90;;;;;;6695187;88;20310;-75
2020/12/08 20:07:05;;;;;;;22.80;11.38;;;4.30;99.90;;;;;;6694841;88;20198;-74
2020/12/08 20:17:06;;;;;;;19.85;10.80;;;4.20;99.90;;;;;;6695152;88;20171;-75
2020/12/08 20:27:07;;;;;;;19.55;10.25;;;4.30;99.90;;;;;;6692101;88;20201;-72
2020/12/08 20:37:08;;;;;;;22.08;11.10;;;4.40;99.90;;;;;;6692328;88;20191;-73
2020/12/08 20:47:09;;;;;;;23.73;12.35;;;4.30;99.90;;;;;;6696495;88;20633;-73
2020/12/08 20:57:10;;;;;;;23.35;11.85;;;4.40;99.90;;;;;;6693380;88;20199;-73
2020/12/08 21:07:10;;;;;;;23.40;11.55;;;4.40;99.90;;;;;;6700440;88;20671;-74
2020/12/08 21:27:14;;;;;;;24.80;12.55;;;4.30;99.90;;;;;;6731599;88;20785;-76
2020/12/08 21:37:15;;;;;;;25.15;12.13;;;4.30;99.90;;;;;;6722648;88;20387;-79
2020/12/08 21:47:15;;;;;;;25.33;11.80;;;4.30;99.90;;;;;;6719158;88;20197;-79
2020/12/08 21:57:16;;;;;;;24.67;11.60;;;4.30;99.90;;;;;;6717674;88;20515;-79
2020/12/08 22:07:17;;;;;;;24.67;12.20;;;4.30;99.90;;;;;;6713245;88;20213;-78
2020/12/08 22:17:18;;;;;;;24.30;12.40;;;4.30;99.90;;;;;;6736953;88;20237;-78
2020/12/08 22:27:18;;;;;;;26.52;14.10;;;4.20;99.90;;;;;;6730073;88;20499;-78
2020/12/08 22:37:19;;;;;;;27.58;13.30;;;4.20;99.90;;;;;;6660185;88;20241;-78
2020/12/08 22:47:19;;;;;;;27.50;13.38;;;4.20;99.90;;;;;;6660499;89;20310;-77
2020/12/08 22:57:21;;;;;;;27.45;13.18;;;4.10;99.90;;;;;;6663959;89;20507;-77
2020/12/08 23:07:21;;;;;;;26.42;13.07;;;4.20;99.90;;;;;;6660451;89;20193;-77
2020/12/08 23:17:22;;;;;;;29.25;14.00;;;4.30;99.90;;;;;;6672611;88;20204;-78
2020/12/08 23:27:23;;;;;;;28.80;14.05;;;4.10;99.90;;;;;;6666305;89;20264;-78
2020/12/08 23:37:27;;;;;;;30.08;14.20;;;4.00;99.90;;;;;;6672994;89;20603;-77
2020/12/08 23:47:35;;;;;;;29.30;13.13;;;4.00;99.90;;;;;;6665205;88;20722;-76
2020/12/08 23:57:36;;;;;;;30.85;14.68;;;4.00;99.90;;;;;;6638184;89;20702;-78
